Time;durP1;ratioP1;P1;durP2;ratioP2;P2;SDS_P1;SDS_P2;PMS_P1;PMS_P2;Temp;Humidity;BMP_temperature;BMP_pressure;BME280_temperature;BME280_humidity;BME280_pressure;Samples;Min_cycle;Max_cycle;Signal;HPM_P1;HPM_P2
2022/08/02 00:01:43;;;;;;;3.93;2.60;;;19.90;91.00;;;;;;5068028;28;20212;-71
2022/08/02 00:04:09;;;;;;;4.00;3.33;;;19.90;91.10;;;;;;5062351;28;20184;-72
2022/08/02 00:06:35;;;;;;;8.60;3.13;;;19.90;91.20;;;;;;5067829;28;20522;-73
2022/08/02 00:09:02;;;;;;;5.37;3.17;;;19.90;91.30;;;;;;5064378;28;20563;-71
2022/08/02 00:11:28;;;;;;;2.90;2.40;;;19.90;91.30;;;;;;5064946;28;20609;-72
2022/08/02 00:13:53;;;;;;;8.90;3.10;;;19.90;91.30;;;;;;5067542;28;20463;-72
2022/08/02 00:16:19;;;;;;;4.53;3.00;;;20.00;91.20;;;;;;5067881;28;20188;-71
2022/08/02 00:18:45;;;;;;;5.37;3.90;;;19.90;91.30;;;;;;5064598;28;20216;-72
2022/08/02 00:21:10;;;;;;;4.97;3.13;;;19.90;91.50;;;;;;5068246;28;20243;-71
2022/08/02 00:23:36;;;;;;;6.07;3.20;;;19.80;91.90;;;;;;5067409;28;20191;-71
2022/08/02 00:26:02;;;;;;;5.57;3.93;;;19.80;92.40;;;;;;5060341;28;20273;-72
2022/08/02 00:28:28;;;;;;;4.60;3.20;;;19.70;92.70;;;;;;5063912;28;20211;-71
2022/08/02 00:30:53;;;;;;;5.67;4.10;;;19.60;93.00;;;;;;5069003;28;20427;-72
2022/08/02 00:33:19;;;;;;;5.53;3.57;;;19.60;93.10;;;;;;5067555;28;20290;-72
2022/08/02 00:35:47;;;;;;;5.57;3.40;;;19.60;93.20;;;;;;5066948;28;20199;-72
2022/08/02 00:38:13;;;;;;;5.67;4.03;;;19.60;93.20;;;;;;5065813;28;20242;-71
2022/08/02 00:40:40;;;;;;;5.27;3.47;;;19.50;93.20;;;;;;5068300;28;20447;-71
2022/08/02 00:43:09;;;;;;;6.00;3.47;;;19.60;93.30;;;;;;5067723;28;20198;-71
2022/08/02 00:45:37;;;;;;;6.20;4.30;;;19.50;93.30;;;;;;5067244;28;20430;-72
2022/08/02 00:48:04;;;;;;;5.93;3.53;;;19.60;93.30;;;;;;5062060;28;20481;-72
2022/08/02 00:50:30;;;;;;;5.33;4.00;;;19.60;93.20;;;;;;5063130;28;20430;-71
2022/08/02 00:52:56;;;;;;;4.87;3.97;;;19.60;93.20;;;;;;5063788;28;20434;-72
2022/08/02 00:55:22;;;;;;;3.70;3.00;;;19.50;93.20;;;;;;5069062;28;20475;-71
2022/08/02 00:57:47;;;;;;;4.80;3.60;;;19.50;93.30;;;;;;5061408;28;20470;-72
2022/08/02 01:00:14;;;;;;;4.97;3.33;;;19.50;93.10;;;;;;5069032;28;20277;-72
2022/08/02 01:02:40;;;;;;;6.23;4.10;;;19.50;93.10;;;;;;5061334;28;20209;-73
2022/08/02 01:05:06;;;;;;;6.93;3.47;;;19.60;93.00;;;;;;5066607;28;20501;-72
2022/08/02 01:07:32;;;;;;;6.60;3.90;;;19.60;92.70;;;;;;5063282;28;20488;-72
2022/08/02 01:09:59;;;;;;;5.23;3.50;;;19.60;92.50;;;;;;5061189;28;20434;-72
2022/08/02 01:12:25;;;;;;;5.17;3.70;;;19.60;92.60;;;;;;5068447;28;20188;-71
2022/08/02 01:14:54;;;;;;;4.33;3.40;;;19.60;92.50;;;;;;5063425;28;20907;-71
2022/08/02 01:17:59;;;;;;;5.00;3.80;;;19.60;92.40;;;;;;5059561;28;20482;-71
2022/08/02 01:20:59;;;;;;;4.40;3.37;;;19.60;92.40;;;;;;5061918;28;20423;-72
2022/08/02 01:23:44;;;;;;;7.80;3.40;;;19.60;92.10;;;;;;5058345;28;20418;-71
2022/08/02 01:26:15;;;;;;;7.30;3.43;;;19.60;91.90;;;;;;5070810;28;20833;-71
2022/08/02 01:28:53;;;;;;;4.40;3.00;;;19.60;91.60;;;;;;5077498;28;20473;-72
2022/08/02 01:31:38;;;;;;;4.40;3.20;;;19.60;91.60;;;;;;5070151;28;20426;-72
2022/08/02 01:34:08;;;;;;;3.90;3.13;;;19.60;91.70;;;;;;5056279;28;20610;-72
2022/08/02 01:36:40;;;;;;;4.17;2.80;;;19.50;91.70;;;;;;5065647;28;20469;-71
2022/08/02 01:39:10;;;;;;;3.87;2.90;;;19.50;91.90;;;;;;5065655;28;20461;-71
2022/08/02 01:41:37;;;;;;;3.57;2.40;;;19.50;91.70;;;;;;5069855;28;20471;-71
2022/08/02 01:44:04;;;;;;;4.37;3.00;;;19.50;91.70;;;;;;5063416;28;20500;-71
2022/08/02 01:46:31;;;;;;;5.67;3.10;;;19.50;91.40;;;;;;5066138;28;20426;-71
2022/08/02 01:49:00;;;;;;;3.47;3.33;;;19.50;91.20;;;;;;5063181;28;20470;-71
2022/08/02 01:54:18;;;;;;;5.40;3.20;;;19.50;91.10;;;;;;5071472;28;20460;-71
2022/08/02 01:56:46;;;;;;;10.53;3.67;;;19.60;91.10;;;;;;5064892;28;20434;-71
2022/08/02 01:59:16;;;;;;;3.03;2.70;;;19.50;91.00;;;;;;5060720;28;20560;-71
2022/08/02 02:01:42;;;;;;;4.00;3.13;;;19.50;91.20;;;;;;5066715;28;20423;-71
2022/08/02 02:04:10;;;;;;;5.70;3.23;;;19.50;91.50;;;;;;5061747;28;20628;-70
2022/08/02 02:06:37;;;;;;;4.73;3.10;;;19.50;91.60;;;;;;5066508;28;20434;-71
2022/08/02 02:09:04;;;;;;;5.53;3.00;;;19.60;91.20;;;;;;5065057;28;20611;-71
2022/08/02 02:11:31;;;;;;;4.27;2.90;;;19.60;91.00;;;;;;5065875;28;20741;-71
2022/08/02 02:13:59;;;;;;;4.20;3.17;;;19.60;90.80;;;;;;5068659;28;20491;-71
2022/08/02 02:16:26;;;;;;;4.83;2.53;;;19.50;90.90;;;;;;5070076;28;20440;-71
2022/08/02 02:18:52;;;;;;;4.27;3.13;;;19.50;91.10;;;;;;5063321;28;21311;-72
2022/08/02 02:21:17;;;;;;;3.80;2.73;;;19.50;91.00;;;;;;5064631;28;20421;-70
2022/08/02 02:23:43;;;;;;;4.50;2.37;;;19.40;91.00;;;;;;5062611;28;20183;-72
2022/08/02 02:26:12;;;;;;;4.90;3.37;;;19.40;91.10;;;;;;5068006;28;20183;-72
2022/08/02 02:28:39;;;;;;;4.93;2.60;;;19.30;91.20;;;;;;5068170;28;20699;-73
2022/08/02 02:31:17;;;;;;;5.90;3.30;;;19.40;91.30;;;;;;5063599;28;20430;-71
2022/08/02 02:33:51;;;;;;;6.30;3.67;;;19.30;91.30;;;;;;5067728;28;20473;-72
2022/08/02 02:36:18;;;;;;;4.00;2.50;;;19.30;91.30;;;;;;5062597;28;20783;-71
2022/08/02 02:38:46;;;;;;;6.30;2.67;;;19.30;91.30;;;;;;5061251;28;20548;-71
2022/08/02 02:41:12;;;;;;;4.07;3.30;;;19.40;91.00;;;;;;5064160;28;20417;-71
2022/08/02 02:43:39;;;;;;;6.80;3.10;;;19.40;90.90;;;;;;5063094;28;20429;-74
2022/08/02 02:46:07;;;;;;;5.77;2.83;;;19.40;91.00;;;;;;5068100;28;20455;-72
2022/08/02 02:48:34;;;;;;;5.03;3.20;;;19.30;90.90;;;;;;5066240;28;20466;-73
2022/08/02 02:51:02;;;;;;;6.53;3.40;;;19.40;90.90;;;;;;5066823;28;20588;-71
2022/08/02 02:53:29;;;;;;;5.50;2.97;;;19.30;90.80;;;;;;5068785;28;20462;-71
2022/08/02 02:55:55;;;;;;;4.30;2.90;;;19.30;90.90;;;;;;5079532;28;20434;-71
2022/08/02 02:58:21;;;;;;;3.50;2.57;;;19.30;90.70;;;;;;5075695;28;20456;-72
2022/08/02 03:03:33;;;;;;;4.87;2.90;;;19.40;90.40;;;;;;5068859;28;20451;-71
2022/08/02 03:05:58;;;;;;;4.33;3.07;;;19.40;90.20;;;;;;5069790;28;20440;-73
2022/08/02 03:08:24;;;;;;;4.30;2.70;;;19.40;90.00;;;;;;5063799;28;20453;-72
2022/08/02 03:10:50;;;;;;;3.40;2.70;;;19.40;89.90;;;;;;5069987;28;20188;-72
2022/08/02 03:13:17;;;;;;;6.60;2.83;;;19.40;89.50;;;;;;5063916;28;20243;-74
2022/08/02 03:15:46;;;;;;;5.17;2.80;;;19.50;89.20;;;;;;5065938;28;20462;-72
2022/08/02 03:18:36;;;;;;;5.00;2.90;;;19.40;88.90;;;;;;5059550;28;21011;-72
2022/08/02 03:21:06;;;;;;;5.97;3.00;;;19.40;89.20;;;;;;5068064;28;20459;-72
2022/08/02 03:23:33;;;;;;;4.90;3.03;;;19.40;88.90;;;;;;5064805;28;20425;-72
2022/08/02 03:26:02;;;;;;;4.60;2.77;;;19.50;89.20;;;;;;5065356;28;20441;-70
2022/08/02 03:28:28;;;;;;;4.70;2.67;;;19.50;89.70;;;;;;5064625;28;20470;-72
2022/08/02 03:30:53;;;;;;;9.67;3.90;;;19.40;90.20;;;;;;5064455;28;20421;-71
2022/08/02 03:33:20;;;;;;;4.13;2.70;;;19.30;90.20;;;;;;5064924;28;20219;-71
2022/08/02 03:35:48;;;;;;;4.60;2.77;;;19.20;90.60;;;;;;5062223;28;20618;-72
2022/08/02 03:38:17;;;;;;;5.10;3.73;;;19.00;90.90;;;;;;5063009;28;20515;-71
2022/08/02 03:40:43;;;;;;;4.10;2.77;;;19.00;91.10;;;;;;5064916;28;20493;-72
2022/08/02 03:43:10;;;;;;;4.33;3.03;;;18.90;91.20;;;;;;5065464;28;20440;-72
2022/08/02 03:45:38;;;;;;;5.00;2.90;;;18.90;91.30;;;;;;5063452;28;20421;-72
2022/08/02 03:48:04;;;;;;;6.73;3.50;;;19.00;91.20;;;;;;5063792;28;20468;-71
2022/08/02 03:50:32;;;;;;;3.33;2.50;;;18.90;91.20;;;;;;5064452;28;20914;-71
2022/08/02 03:52:58;;;;;;;3.90;2.93;;;18.90;91.30;;;;;;5065704;28;20869;-71
2022/08/02 03:55:23;;;;;;;6.97;3.20;;;18.90;91.40;;;;;;5070597;28;20429;-72
2022/08/02 03:57:50;;;;;;;3.03;2.53;;;18.90;91.40;;;;;;5064779;28;20450;-71
2022/08/02 04:00:20;;;;;;;4.83;3.00;;;18.90;91.50;;;;;;5065554;28;20646;-71
2022/08/02 04:02:46;;;;;;;4.17;2.97;;;18.90;91.40;;;;;;5067158;28;20427;-72
2022/08/02 04:05:12;;;;;;;3.30;2.63;;;18.90;91.10;;;;;;5069941;28;20485;-72
2022/08/02 04:07:38;;;;;;;4.93;3.00;;;18.90;90.90;;;;;;5064111;28;20461;-71
2022/08/02 04:10:05;;;;;;;7.07;4.00;;;19.00;90.70;;;;;;5061496;28;20190;-71
2022/08/02 04:12:30;;;;;;;5.73;3.40;;;18.90;90.60;;;;;;5066343;28;20443;-71
2022/08/02 04:14:57;;;;;;;4.33;2.77;;;18.80;90.80;;;;;;5053607;28;20466;-71
2022/08/02 04:17:24;;;;;;;4.00;2.60;;;18.80;91.00;;;;;;5069245;28;21141;-71
2022/08/02 04:19:53;;;;;;;5.10;3.53;;;18.80;91.20;;;;;;5070149;28;20436;-72
2022/08/02 04:22:24;;;;;;;4.40;3.03;;;18.80;91.30;;;;;;5075570;28;20426;-72
2022/08/02 04:24:55;;;;;;;8.47;3.30;;;18.80;91.20;;;;;;5080403;28;20422;-72
2022/08/02 04:27:22;;;;;;;5.30;3.27;;;18.80;91.20;;;;;;5072771;28;20471;-71
2022/08/02 04:29:49;;;;;;;5.37;3.33;;;18.80;91.10;;;;;;5065036;28;20793;-71
2022/08/02 04:32:15;;;;;;;5.80;3.67;;;18.80;91.10;;;;;;5065366;28;20420;-72
2022/08/02 04:34:45;;;;;;;5.03;3.27;;;18.80;91.00;;;;;;5057675;28;20841;-71
2022/08/02 04:37:12;;;;;;;4.70;3.00;;;18.80;91.20;;;;;;5055259;28;20918;-71
2022/08/02 04:39:42;;;;;;;4.20;2.80;;;18.70;91.40;;;;;;5058779;28;20994;-71
2022/08/02 04:42:08;;;;;;;5.80;3.47;;;18.70;91.40;;;;;;5068191;28;20415;-72
2022/08/02 04:44:34;;;;;;;7.00;3.40;;;18.80;91.40;;;;;;5069025;28;20413;-72
2022/08/02 04:47:04;;;;;;;5.80;3.27;;;18.80;91.40;;;;;;5062245;28;20198;-71
2022/08/02 04:49:30;;;;;;;5.20;2.90;;;18.90;91.20;;;;;;5059961;28;20430;-72
2022/08/02 04:51:56;;;;;;;6.30;3.20;;;18.90;90.90;;;;;;5065856;28;20735;-69
2022/08/02 04:54:21;;;;;;;5.20;3.13;;;18.90;91.00;;;;;;5066282;28;20478;-70
2022/08/02 04:56:47;;;;;;;5.63;3.40;;;18.90;90.90;;;;;;5064659;28;20176;-69
2022/08/02 04:59:13;;;;;;;7.03;3.20;;;19.00;90.70;;;;;;5061585;28;20205;-68
2022/08/02 05:01:41;;;;;;;6.67;3.30;;;19.10;90.60;;;;;;5063403;28;20180;-71
2022/08/02 05:04:06;;;;;;;6.50;3.00;;;19.10;90.50;;;;;;5062895;28;20183;-69
2022/08/02 05:06:32;;;;;;;4.70;3.07;;;19.10;90.30;;;;;;5064188;28;20445;-70
2022/08/02 05:08:57;;;;;;;4.87;2.97;;;19.10;90.40;;;;;;5062523;28;20279;-69
2022/08/02 05:11:24;;;;;;;6.23;3.43;;;19.00;90.60;;;;;;5069246;28;20207;-70
2022/08/02 05:13:49;;;;;;;6.90;3.27;;;19.00;90.80;;;;;;5065671;28;20593;-70
2022/08/02 05:16:15;;;;;;;3.87;2.77;;;19.00;90.80;;;;;;5068828;28;20440;-71
2022/08/02 05:18:41;;;;;;;5.20;3.60;;;19.10;90.50;;;;;;5068234;28;20207;-72
2022/08/02 05:21:06;;;;;;;6.07;3.50;;;19.10;90.30;;;;;;5071982;28;20184;-71
2022/08/02 05:23:32;;;;;;;7.30;3.70;;;19.10;90.50;;;;;;5066924;28;20617;-71
2022/08/02 05:25:58;;;;;;;4.70;3.23;;;19.10;90.60;;;;;;5070478;28;20199;-72
2022/08/02 05:28:24;;;;;;;5.70;3.27;;;19.10;90.50;;;;;;5062730;28;20272;-71
2022/08/02 05:30:50;;;;;;;4.20;2.97;;;19.20;90.50;;;;;;5062642;28;20647;-72
2022/08/02 05:33:15;;;;;;;4.50;3.40;;;19.20;90.50;;;;;;5062818;28;20895;-72
2022/08/02 05:35:41;;;;;;;4.23;2.70;;;19.20;89.90;;;;;;5072367;28;20450;-72
2022/08/02 05:38:07;;;;;;;6.57;3.70;;;19.30;89.70;;;;;;5063730;28;20246;-72
2022/08/02 05:40:32;;;;;;;4.50;3.20;;;19.30;89.30;;;;;;5072818;28;20258;-72
2022/08/02 05:42:58;;;;;;;6.23;3.57;;;19.40;89.20;;;;;;5072276;28;20202;-72
2022/08/02 05:45:24;;;;;;;7.30;3.50;;;19.50;88.70;;;;;;5070508;28;20653;-74
2022/08/02 05:47:50;;;;;;;5.60;3.73;;;19.60;87.80;;;;;;5066489;28;20298;-73
2022/08/02 05:50:16;;;;;;;4.63;3.50;;;19.70;88.00;;;;;;5067104;28;20299;-72
2022/08/02 05:52:49;;;;;;;9.63;3.73;;;19.80;87.10;;;;;;5071240;28;20441;-72
2022/08/02 05:55:25;;;;;;;7.60;3.90;;;19.90;85.50;;;;;;5061696;28;20469;-72
2022/08/02 05:57:52;;;;;;;5.90;4.10;;;20.10;84.40;;;;;;5058650;28;20446;-73
2022/08/02 06:00:19;;;;;;;5.83;3.60;;;20.20;84.30;;;;;;5067699;28;20419;-72
2022/08/02 06:02:53;;;;;;;8.57;3.67;;;20.30;83.30;;;;;;5077658;28;20508;-72
2022/08/02 06:05:20;;;;;;;6.67;4.30;;;20.40;83.10;;;;;;5079796;28;20792;-72
2022/08/02 06:07:49;;;;;;;5.20;3.53;;;20.40;83.10;;;;;;5061578;28;20828;-72
2022/08/02 06:10:17;;;;;;;5.30;3.67;;;20.40;83.10;;;;;;5064174;28;20422;-73
2022/08/02 06:12:49;;;;;;;9.03;4.70;;;20.40;83.30;;;;;;5065714;28;20575;-72
2022/08/02 06:15:17;;;;;;;8.33;4.07;;;20.40;82.50;;;;;;5067926;28;20496;-72
2022/08/02 06:17:43;;;;;;;6.13;4.17;;;20.50;82.50;;;;;;5063242;28;20610;-72
2022/08/02 06:20:13;;;;;;;8.57;4.87;;;20.50;81.90;;;;;;5065439;28;20430;-73
2022/08/02 06:22:43;;;;;;;7.47;4.50;;;20.50;81.70;;;;;;5067593;28;20434;-73
2022/08/02 06:25:10;;;;;;;7.10;4.33;;;20.50;81.20;;;;;;5070573;28;20427;-73
2022/08/02 06:27:37;;;;;;;7.97;4.40;;;20.60;81.10;;;;;;5064825;28;20517;-72
2022/08/02 06:30:04;;;;;;;12.00;5.03;;;20.60;80.90;;;;;;5069953;28;20427;-74
2022/08/02 06:32:31;;;;;;;10.33;5.30;;;20.70;80.60;;;;;;5061128;28;20511;-72
2022/08/02 06:34:57;;;;;;;11.70;4.70;;;20.80;80.50;;;;;;5067898;28;20471;-72
2022/08/02 06:37:30;;;;;;;11.10;4.93;;;20.80;80.20;;;;;;5065134;28;20505;-72
2022/08/02 06:40:13;;;;;;;12.40;5.83;;;20.80;80.20;;;;;;5068733;28;20212;-73
2022/08/02 06:43:02;;;;;;;8.40;4.77;;;20.80;80.00;;;;;;5065885;28;20545;-72
2022/08/02 06:45:28;;;;;;;6.40;4.63;;;20.90;79.70;;;;;;5063174;28;20409;-73
2022/08/02 06:47:54;;;;;;;7.17;4.60;;;21.00;79.60;;;;;;5066753;28;20980;-72
2022/08/02 06:50:19;;;;;;;8.97;5.23;;;21.00;79.30;;;;;;5062096;28;20217;-72
2022/08/02 06:52:45;;;;;;;6.80;4.93;;;21.00;78.90;;;;;;5066102;28;20184;-72
2022/08/02 06:55:10;;;;;;;6.17;4.47;;;21.20;78.90;;;;;;5061345;28;20770;-72
2022/08/02 06:57:36;;;;;;;8.13;4.80;;;21.30;78.60;;;;;;5059651;28;20637;-72
2022/08/02 07:00:07;;;;;;;9.37;5.10;;;21.30;78.30;;;;;;5066553;28;20264;-72
2022/08/02 07:02:35;;;;;;;8.50;4.50;;;21.40;78.40;;;;;;5064719;28;20529;-72
2022/08/02 07:05:01;;;;;;;11.20;4.83;;;21.40;78.60;;;;;;5063063;28;20815;-72
2022/08/02 07:07:27;;;;;;;9.03;5.07;;;21.50;78.60;;;;;;5066338;28;20464;-73
2022/08/02 07:09:52;;;;;;;10.00;4.80;;;21.70;77.70;;;;;;5066178;28;20187;-72
2022/08/02 07:12:18;;;;;;;6.10;4.13;;;21.80;77.60;;;;;;5069672;28;20182;-73
2022/08/02 07:14:44;;;;;;;5.83;4.13;;;21.90;77.40;;;;;;5068470;28;20219;-72
2022/08/02 07:17:10;;;;;;;7.20;4.73;;;22.00;76.80;;;;;;5066420;28;22065;-72
2022/08/02 07:19:36;;;;;;;7.50;4.90;;;22.10;76.50;;;;;;5064244;28;20185;-72
2022/08/02 07:22:01;;;;;;;8.80;5.73;;;22.20;75.90;;;;;;5067809;28;20417;-72
2022/08/02 07:24:27;;;;;;;9.27;6.03;;;22.20;74.80;;;;;;5061947;28;20183;-71
2022/08/02 07:26:53;;;;;;;11.20;6.20;;;22.20;75.20;;;;;;5068176;28;20688;-72
2022/08/02 07:29:18;;;;;;;9.70;5.43;;;22.30;74.60;;;;;;5063112;28;20212;-71
2022/08/02 07:31:44;;;;;;;6.73;4.80;;;22.30;74.20;;;;;;5067957;28;20274;-73
2022/08/02 07:34:09;;;;;;;7.00;4.90;;;22.40;74.30;;;;;;5061812;28;20677;-72
2022/08/02 07:36:35;;;;;;;8.03;4.93;;;22.50;73.90;;;;;;5066465;28;20187;-73
2022/08/02 07:39:00;;;;;;;7.23;4.73;;;22.60;74.00;;;;;;5064168;28;20550;-73
2022/08/02 07:41:26;;;;;;;8.60;5.20;;;22.70;74.00;;;;;;5064893;28;20185;-73
2022/08/02 07:43:52;;;;;;;8.40;4.23;;;22.80;73.60;;;;;;5067043;28;20197;-72
2022/08/02 07:46:17;;;;;;;10.07;5.20;;;23.00;73.00;;;;;;5065957;28;20249;-72
2022/08/02 07:48:45;;;;;;;7.50;4.77;;;23.10;72.40;;;;;;5069253;28;20201;-72
2022/08/02 07:51:10;;;;;;;7.63;5.93;;;23.00;72.30;;;;;;5073348;28;20189;-71
2022/08/02 07:53:36;;;;;;;6.93;5.20;;;22.90;72.10;;;;;;5068894;28;20568;-72
2022/08/02 07:56:01;;;;;;;8.43;5.37;;;23.00;72.40;;;;;;5068598;28;20272;-71
2022/08/02 07:58:27;;;;;;;10.30;5.50;;;23.20;72.10;;;;;;5065635;28;20697;-72
2022/08/02 08:00:52;;;;;;;7.17;4.80;;;23.20;72.00;;;;;;5065157;28;20644;-73
2022/08/02 08:03:18;;;;;;;6.93;5.17;;;23.30;72.10;;;;;;5070030;28;20331;-73
2022/08/02 08:05:44;;;;;;;9.07;4.80;;;23.30;71.70;;;;;;5065225;28;20181;-73
2022/08/02 08:08:10;;;;;;;13.50;5.80;;;23.20;72.40;;;;;;5064621;28;20708;-72
2022/08/02 08:10:35;;;;;;;10.40;5.53;;;23.10;72.70;;;;;;5070590;28;20275;-73
2022/08/02 08:13:01;;;;;;;8.77;5.43;;;22.90;73.50;;;;;;5066664;28;20430;-72
2022/08/02 08:15:26;;;;;;;6.10;4.83;;;23.00;73.60;;;;;;5064508;28;20680;-72
2022/08/02 08:17:52;;;;;;;6.97;5.20;;;22.90;73.00;;;;;;5060424;28;20888;-72
2022/08/02 08:20:18;;;;;;;7.73;4.77;;;23.00;72.90;;;;;;5065168;28;20257;-71
2022/08/02 08:22:43;;;;;;;8.63;5.30;;;23.00;72.60;;;;;;5061804;28;20197;-72
2022/08/02 08:25:09;;;;;;;7.80;4.80;;;23.20;72.40;;;;;;5062642;28;20183;-74
2022/08/02 08:27:34;;;;;;;8.03;6.37;;;23.30;72.00;;;;;;5062479;28;20218;-73
2022/08/02 08:30:00;;;;;;;7.73;4.87;;;23.40;71.40;;;;;;5062840;28;20307;-73
2022/08/02 08:32:26;;;;;;;8.90;5.70;;;23.50;71.10;;;;;;5067024;28;20195;-73
2022/08/02 08:34:52;;;;;;;9.80;5.13;;;23.60;70.10;;;;;;5058145;28;21088;-73
2022/08/02 08:37:18;;;;;;;8.27;5.90;;;23.70;70.20;;;;;;5061826;28;20215;-72
2022/08/02 08:39:44;;;;;;;8.40;5.53;;;23.60;69.90;;;;;;5063723;28;20252;-73
2022/08/02 08:42:10;;;;;;;6.70;4.93;;;23.50;70.20;;;;;;5064298;28;20420;-73
2022/08/02 08:44:36;;;;;;;8.60;4.90;;;23.60;69.80;;;;;;5067660;28;20432;-77
2022/08/02 08:47:03;;;;;;;7.70;5.43;;;23.70;69.80;;;;;;5068752;28;20194;-72
2022/08/02 08:49:38;;;;;;;9.57;5.97;;;23.80;68.90;;;;;;5068361;28;20186;-72
2022/08/02 08:52:05;;;;;;;9.67;5.77;;;23.90;68.20;;;;;;5072030;28;20477;-72
2022/08/02 08:54:33;;;;;;;8.80;5.37;;;23.90;68.20;;;;;;5072497;28;20471;-73
2022/08/02 08:56:59;;;;;;;10.03;5.03;;;24.00;68.20;;;;;;5071356;28;20432;-72
2022/08/02 08:59:25;;;;;;;10.63;6.03;;;24.00;67.60;;;;;;5060570;28;20798;-72
2022/08/02 09:01:51;;;;;;;9.43;5.60;;;24.20;67.30;;;;;;5071940;28;20429;-73
2022/08/02 09:04:17;;;;;;;8.87;5.87;;;24.20;67.20;;;;;;5071774;28;20189;-72
2022/08/02 09:06:43;;;;;;;8.10;5.57;;;24.30;66.90;;;;;;5070959;28;20554;-71
2022/08/02 09:09:09;;;;;;;8.20;6.43;;;24.40;66.00;;;;;;5063692;28;20542;-72
2022/08/02 09:11:34;;;;;;;9.40;6.00;;;24.30;66.10;;;;;;5067286;28;20229;-73
2022/08/02 09:14:01;;;;;;;11.23;7.80;;;24.40;66.00;;;;;;5071213;28;20261;-73
2022/08/02 09:16:31;;;;;;;6.70;5.67;;;24.50;65.80;;;;;;5062943;28;20189;-73
2022/08/02 09:18:57;;;;;;;11.70;6.30;;;24.60;65.40;;;;;;5067780;28;20517;-73
2022/08/02 09:21:32;;;;;;;7.50;6.30;;;24.60;65.70;;;;;;5060615;28;20448;-71
2022/08/02 09:23:58;;;;;;;14.20;5.93;;;24.80;65.10;;;;;;5068637;28;20828;-72
2022/08/02 09:26:25;;;;;;;11.90;6.03;;;24.90;65.10;;;;;;5065414;28;20528;-71
2022/08/02 09:28:57;;;;;;;8.00;5.63;;;25.00;64.40;;;;;;5070051;28;20557;-72
2022/08/02 09:31:23;;;;;;;12.03;6.73;;;25.00;64.50;;;;;;5066836;28;20427;-72
2022/08/02 09:33:54;;;;;;;10.33;6.57;;;25.30;63.20;;;;;;5070987;28;20570;-71
2022/08/02 09:36:22;;;;;;;9.80;6.43;;;25.30;63.20;;;;;;5071422;28;20816;-71
2022/08/02 09:39:03;;;;;;;7.93;6.00;;;25.30;63.40;;;;;;5064239;28;20607;-72
2022/08/02 09:41:31;;;;;;;12.23;6.50;;;25.10;63.90;;;;;;5071102;28;20419;-72
2022/08/02 09:43:58;;;;;;;6.20;5.13;;;25.20;63.80;;;;;;5069633;28;20489;-72
2022/08/02 09:46:26;;;;;;;10.10;6.90;;;25.40;63.50;;;;;;5071405;28;20420;-72
2022/08/02 09:48:55;;;;;;;8.27;5.70;;;25.40;62.90;;;;;;5064910;28;20456;-71
2022/08/02 09:51:23;;;;;;;7.77;5.80;;;25.40;62.80;;;;;;5070691;28;20429;-72
2022/08/02 09:53:52;;;;;;;9.07;7.20;;;25.40;63.20;;;;;;5069546;28;20470;-72
2022/08/02 09:56:18;;;;;;;12.27;6.80;;;25.20;62.80;;;;;;5069025;28;20452;-72
2022/08/02 09:58:45;;;;;;;10.03;7.00;;;25.20;63.70;;;;;;5064145;28;20443;-73
2022/08/02 10:01:11;;;;;;;9.63;5.87;;;25.20;63.40;;;;;;5062161;28;20416;-71
2022/08/02 10:03:36;;;;;;;10.03;6.37;;;25.30;63.40;;;;;;5068270;28;20558;-71
2022/08/02 10:06:03;;;;;;;9.00;5.97;;;25.60;62.80;;;;;;5070433;28;20646;-72
2022/08/02 10:08:30;;;;;;;8.13;5.77;;;25.80;61.60;;;;;;5061087;28;20209;-71
2022/08/02 10:11:00;;;;;;;8.13;5.40;;;25.70;61.30;;;;;;5069264;28;20413;-72
2022/08/02 10:13:33;;;;;;;7.70;6.00;;;25.60;61.70;;;;;;5066107;28;21142;-72
2022/08/02 10:16:04;;;;;;;8.10;6.83;;;25.80;61.70;;;;;;5067852;28;20428;-72
2022/08/02 10:18:30;;;;;;;7.53;6.13;;;26.00;60.30;;;;;;5067687;28;20457;-73
2022/08/02 10:20:59;;;;;;;12.13;6.20;;;25.90;60.60;;;;;;5066114;28;20413;-72
2022/08/02 10:23:26;;;;;;;8.13;6.17;;;26.20;60.30;;;;;;5068366;28;20183;-73
2022/08/02 10:25:53;;;;;;;9.70;6.80;;;26.50;59.50;;;;;;5068941;28;20432;-71
2022/08/02 10:28:25;;;;;;;6.73;5.43;;;26.60;59.10;;;;;;5060429;28;20448;-72
2022/08/02 10:30:55;;;;;;;8.93;6.27;;;27.00;58.50;;;;;;5070368;28;20756;-73
2022/08/02 10:33:21;;;;;;;8.20;5.27;;;27.70;56.40;;;;;;5067421;28;20410;-72
2022/08/02 10:35:50;;;;;;;7.43;5.47;;;28.40;54.40;;;;;;5068088;28;20430;-73
2022/08/02 10:38:17;;;;;;;7.30;5.70;;;28.80;52.90;;;;;;5068222;28;20998;-72
2022/08/02 10:40:48;;;;;;;6.23;5.30;;;29.00;52.90;;;;;;5068177;28;20451;-72
2022/08/02 10:43:34;;;;;;;6.03;4.60;;;29.10;52.10;;;;;;5068295;28;20920;-71
2022/08/02 10:46:19;;;;;;;9.00;4.87;;;29.40;51.30;;;;;;5066880;28;20422;-72
2022/08/02 10:49:03;;;;;;;7.80;5.93;;;29.50;51.00;;;;;;5056345;28;20493;-72
2022/08/02 10:51:54;;;;;;;7.10;5.67;;;29.00;51.40;;;;;;5060191;28;20422;-72
2022/08/02 10:54:25;;;;;;;6.50;5.13;;;28.60;52.80;;;;;;5065843;28;20469;-72
2022/08/02 10:56:54;;;;;;;5.03;4.60;;;29.20;51.40;;;;;;5069900;28;20537;-73
2022/08/02 10:59:32;;;;;;;5.40;4.50;;;29.70;50.30;;;;;;5070631;28;20446;-72
2022/08/02 11:02:02;;;;;;;6.53;4.87;;;30.00;48.70;;;;;;5063054;28;20422;-72
2022/08/02 11:04:49;;;;;;;9.83;4.97;;;29.80;49.10;;;;;;5065320;28;20418;-71
2022/08/02 11:07:29;;;;;;;6.20;5.10;;;30.30;48.70;;;;;;5073586;28;20458;-73
2022/08/02 11:09:55;;;;;;;5.13;4.20;;;30.30;47.40;;;;;;5084205;28;20430;-72
2022/08/02 11:12:21;;;;;;;7.13;5.10;;;30.00;49.10;;;;;;5088987;28;20456;-72
2022/08/02 11:15:02;;;;;;;5.73;4.73;;;29.60;48.60;;;;;;5072415;28;20470;-72
2022/08/02 11:17:51;;;;;;;9.07;5.73;;;29.60;49.50;;;;;;5065358;28;20231;-73
2022/08/02 11:20:18;;;;;;;8.30;5.60;;;29.20;49.40;;;;;;5066082;28;20442;-72
2022/08/02 11:22:45;;;;;;;7.23;5.87;;;28.40;51.30;;;;;;5068132;28;20515;-72
2022/08/02 11:25:25;;;;;;;7.90;6.30;;;28.60;51.00;;;;;;5067841;28;20787;-73
2022/08/02 11:27:56;;;;;;;7.87;5.80;;;27.90;52.40;;;;;;5068130;28;20468;-71
2022/08/02 11:30:22;;;;;;;12.50;5.63;;;28.20;51.80;;;;;;5061343;28;20419;-72
2022/08/02 11:32:48;;;;;;;7.97;5.33;;;28.10;52.20;;;;;;5066142;28;20462;-71
2022/08/02 11:35:14;;;;;;;12.33;6.30;;;27.80;52.40;;;;;;5068834;28;20476;-72
2022/08/02 11:37:43;;;;;;;7.47;5.30;;;27.60;53.20;;;;;;5065432;28;20458;-71
2022/08/02 11:40:17;;;;;;;5.73;5.07;;;28.20;51.80;;;;;;5064004;28;20523;-71
2022/08/02 11:42:49;;;;;;;7.80;5.30;;;28.50;51.30;;;;;;5062086;28;20491;-72
2022/08/02 11:45:23;;;;;;;7.27;5.17;;;28.90;50.70;;;;;;5063986;28;20893;-73
2022/08/02 11:47:51;;;;;;;8.50;5.60;;;29.10;49.80;;;;;;5063581;28;21003;-73
2022/08/02 11:50:19;;;;;;;8.53;5.83;;;29.30;49.00;;;;;;5060844;28;20433;-73
2022/08/02 11:52:45;;;;;;;7.07;5.43;;;29.00;49.40;;;;;;5063594;28;20436;-72
2022/08/02 11:55:12;;;;;;;8.60;6.20;;;28.90;49.90;;;;;;5059719;28;21172;-72
2022/08/02 11:57:39;;;;;;;11.90;8.50;;;28.80;49.80;;;;;;5058939;28;20474;-72
2022/08/02 12:00:16;;;;;;;11.07;6.60;;;28.70;50.10;;;;;;5061705;28;20414;-72
2022/08/02 12:02:48;;;;;;;9.00;5.00;;;28.70;49.80;;;;;;5060252;28;20429;-72
2022/08/02 12:05:19;;;;;;;7.90;5.30;;;28.70;49.80;;;;;;5062523;28;20417;-74
2022/08/02 12:07:46;;;;;;;7.90;5.70;;;28.80;49.40;;;;;;5065615;28;20454;-73
2022/08/02 12:10:17;;;;;;;7.83;5.37;;;28.90;49.10;;;;;;5068362;28;20422;-73
2022/08/02 12:12:59;;;;;;;5.20;4.77;;;28.70;49.80;;;;;;5059894;28;20451;-71
2022/08/02 12:15:40;;;;;;;5.80;5.00;;;28.70;49.50;;;;;;5061242;28;20519;-73
2022/08/02 12:20:59;;;;;;;8.00;4.57;;;28.60;50.20;;;;;;5064341;28;20411;-73
2022/08/02 12:23:25;;;;;;;7.20;5.43;;;28.90;49.70;;;;;;5064797;28;20481;-72
2022/08/02 12:26:03;;;;;;;9.47;5.33;;;29.00;49.80;;;;;;5062781;28;20442;-72
2022/08/02 12:28:33;;;;;;;5.70;5.17;;;28.70;50.30;;;;;;5059689;28;20458;-72
2022/08/02 12:31:00;;;;;;;7.53;5.20;;;28.70;51.00;;;;;;5061323;28;20430;-72
2022/08/02 12:33:43;;;;;;;8.50;5.97;;;28.80;50.90;;;;;;5073922;28;20423;-73
2022/08/02 12:36:20;;;;;;;8.20;5.83;;;28.80;50.90;;;;;;5074724;28;20414;-72
2022/08/02 12:38:56;;;;;;;7.20;5.00;;;28.60;51.20;;;;;;5068963;28;20963;-73
2022/08/02 12:41:23;;;;;;;7.13;5.03;;;28.80;49.80;;;;;;5073953;28;20426;-73
2022/08/02 12:43:50;;;;;;;7.20;5.50;;;28.80;50.10;;;;;;5067155;28;20433;-72
2022/08/02 12:46:17;;;;;;;9.30;5.73;;;29.00;49.50;;;;;;5057749;28;20432;-72
2022/08/02 12:48:43;;;;;;;6.50;5.27;;;29.10;49.00;;;;;;5061433;28;20469;-72
2022/08/02 12:51:35;;;;;;;15.93;6.03;;;29.40;47.70;;;;;;5060759;28;20423;-74
2022/08/02 12:54:16;;;;;;;6.10;4.73;;;29.40;47.50;;;;;;5067368;28;20268;-72
2022/08/02 12:56:41;;;;;;;7.90;6.20;;;29.70;47.70;;;;;;5058813;28;20427;-72
2022/08/02 12:59:07;;;;;;;6.70;4.70;;;30.30;45.90;;;;;;5065384;28;20466;-73
2022/08/02 13:01:34;;;;;;;5.70;4.77;;;30.60;45.50;;;;;;5064152;28;20187;-72